Time;durP1;ratioP1;P1;durP2;ratioP2;P2;SDS_P1;SDS_P2;PMS_P1;PMS_P2;Temp;Humidity;BMP_temperature;BMP_pressure;BME280_temperature;BME280_humidity;BME280_pressure;Samples;Min_cycle;Max_cycle;Signal;HPM_P1;HPM_P2
2024/05/02 00:02:20;;;;;;;6.70;3.28;;;22.80;99.90;;;;;;5348143;26;19997;-51
2024/05/02 00:04:46;;;;;;;5.03;2.65;;;22.80;99.90;;;;;;5347533;26;20012;-51
2024/05/02 00:07:12;;;;;;;4.78;2.83;;;22.80;99.90;;;;;;5347564;26;20361;-51
2024/05/02 00:09:37;;;;;;;4.68;2.88;;;22.70;99.90;;;;;;5347759;26;20071;-52
2024/05/02 00:12:03;;;;;;;5.55;2.63;;;22.70;99.90;;;;;;5347244;26;19997;-52
2024/05/02 00:14:29;;;;;;;4.68;2.80;;;22.70;99.90;;;;;;5347381;26;20008;-52
2024/05/02 00:16:55;;;;;;;3.85;2.80;;;22.70;99.90;;;;;;5347443;26;20005;-51
2024/05/02 00:19:21;;;;;;;4.55;2.97;;;22.70;99.90;;;;;;5347329;26;20005;-52
2024/05/02 00:21:46;;;;;;;4.72;3.03;;;22.70;99.90;;;;;;5347314;26;20036;-52
2024/05/02 00:24:12;;;;;;;4.40;2.90;;;22.70;99.90;;;;;;5374813;26;20007;-52
2024/05/02 00:26:38;;;;;;;5.45;2.83;;;22.70;99.90;;;;;;5347449;26;20071;-51
2024/05/02 00:29:04;;;;;;;7.28;3.60;;;22.70;99.90;;;;;;5347163;26;20329;-50
2024/05/02 00:31:29;;;;;;;6.00;3.33;;;22.70;99.90;;;;;;5347292;26;20001;-52
2024/05/02 00:33:55;;;;;;;5.05;2.38;;;22.70;99.90;;;;;;5347011;26;20008;-52
2024/05/02 00:36:21;;;;;;;4.68;2.53;;;22.70;99.90;;;;;;5347074;26;20001;-51
2024/05/02 00:38:47;;;;;;;5.05;2.90;;;22.70;99.90;;;;;;5347035;26;20444;-52
2024/05/02 00:41:13;;;;;;;4.93;2.92;;;22.70;99.90;;;;;;5347351;26;19997;-51
2024/05/02 00:43:41;;;;;;;5.75;2.58;;;22.70;99.90;;;;;;5347599;26;20539;-52
2024/05/02 00:46:08;;;;;;;9.98;3.17;;;22.60;99.90;;;;;;5346849;26;19997;-51
2024/05/02 00:48:34;;;;;;;5.45;2.55;;;22.60;99.90;;;;;;5346855;26;20333;-51
2024/05/02 00:51:00;;;;;;;5.03;2.63;;;22.60;99.90;;;;;;5346835;26;19997;-51
2024/05/02 00:53:26;;;;;;;5.32;3.08;;;22.60;99.90;;;;;;5346798;26;20001;-50
2024/05/02 00:55:53;;;;;;;5.28;2.95;;;22.60;99.90;;;;;;5316267;26;20301;-51
2024/05/02 00:58:19;;;;;;;4.90;2.83;;;22.60;99.90;;;;;;5346734;26;20445;-51
2024/05/02 01:00:45;;;;;;;4.03;2.35;;;22.60;99.90;;;;;;5393813;21;20360;-50
2024/05/02 01:03:11;;;;;;;2.92;2.10;;;22.60;99.90;;;;;;5381933;26;20004;-51
2024/05/02 01:05:37;;;;;;;6.60;2.80;;;22.60;99.90;;;;;;5381745;26;19992;-51
2024/05/02 01:08:06;;;;;;;7.78;2.42;;;22.60;99.90;;;;;;5381576;26;20000;-51
2024/05/02 01:10:32;;;;;;;4.40;2.67;;;22.60;99.90;;;;;;5381461;26;19993;-51
2024/05/02 01:13:00;;;;;;;5.93;2.60;;;22.50;99.90;;;;;;5381435;26;20091;-53
2024/05/02 01:15:26;;;;;;;3.65;2.42;;;22.50;99.90;;;;;;5381433;26;20070;-51
2024/05/02 01:17:52;;;;;;;4.03;2.10;;;22.50;99.90;;;;;;5381423;26;19992;-51
2024/05/02 01:20:17;;;;;;;5.25;2.65;;;22.50;99.90;;;;;;5381584;26;20006;-51
2024/05/02 01:22:44;;;;;;;4.03;2.63;;;22.50;99.90;;;;;;5381744;26;20023;-51
2024/05/02 01:25:09;;;;;;;4.95;2.55;;;22.60;99.90;;;;;;5381301;26;20448;-53
2024/05/02 01:27:35;;;;;;;3.67;2.10;;;22.60;99.90;;;;;;5381309;26;20358;-51
2024/05/02 01:30:01;;;;;;;3.72;2.17;;;22.50;99.90;;;;;;5381354;26;19992;-51
2024/05/02 01:32:27;;;;;;;4.95;2.33;;;22.50;99.90;;;;;;5381531;26;19996;-51
2024/05/02 01:34:52;;;;;;;5.68;2.58;;;22.50;99.90;;;;;;5381232;26;20008;-51
2024/05/02 01:37:18;;;;;;;4.93;2.45;;;22.50;99.90;;;;;;5380984;26;19992;-51
2024/05/02 01:39:44;;;;;;;4.05;2.33;;;22.50;99.90;;;;;;5381270;26;19996;-51
2024/05/02 01:42:10;;;;;;;5.57;2.80;;;22.50;99.90;;;;;;5381210;26;20003;-51
2024/05/02 01:44:36;;;;;;;4.70;2.47;;;22.50;99.90;;;;;;5381052;26;20073;-51
2024/05/02 01:47:01;;;;;;;4.80;2.88;;;22.50;99.90;;;;;;5380989;26;20004;-51
2024/05/02 01:49:27;;;;;;;4.20;2.30;;;22.40;99.90;;;;;;5380975;26;20062;-51
2024/05/02 01:51:53;;;;;;;4.85;2.88;;;22.50;99.90;;;;;;5379391;26;20007;-51
2024/05/02 01:54:19;;;;;;;4.75;2.42;;;22.40;99.90;;;;;;5380234;26;20004;-51
2024/05/02 01:56:44;;;;;;;4.55;2.05;;;22.40;99.90;;;;;;5379386;26;19996;-51
2024/05/02 01:59:11;;;;;;;3.28;2.03;;;22.40;99.90;;;;;;5379154;26;20042;-51
2024/05/02 02:01:36;;;;;;;3.25;2.15;;;22.40;99.90;;;;;;5395085;21;20466;-55
2024/05/02 02:04:02;;;;;;;5.25;2.35;;;22.40;99.90;;;;;;5380780;26;20000;-54
2024/05/02 02:06:28;;;;;;;5.03;2.38;;;22.40;99.90;;;;;;5380596;26;20012;-55
2024/05/02 02:08:54;;;;;;;4.13;2.00;;;22.40;99.90;;;;;;5380661;26;20000;-55
2024/05/02 02:11:20;;;;;;;4.22;2.30;;;22.40;99.90;;;;;;5380746;26;20055;-56
2024/05/02 02:13:45;;;;;;;4.95;2.10;;;22.40;99.90;;;;;;5380894;26;20000;-56
2024/05/02 02:16:11;;;;;;;4.18;2.33;;;22.40;99.90;;;;;;5380484;26;19997;-56
2024/05/02 02:18:37;;;;;;;4.25;2.38;;;22.40;99.90;;;;;;5380640;26;20392;-54
2024/05/02 02:21:03;;;;;;;3.53;2.17;;;22.40;99.90;;;;;;5378748;26;20000;-54
2024/05/02 02:23:29;;;;;;;4.00;2.05;;;22.40;99.90;;;;;;5380414;26;19996;-54
2024/05/02 02:25:55;;;;;;;5.90;2.67;;;22.40;99.90;;;;;;5380468;26;20011;-52
2024/05/02 02:28:21;;;;;;;3.25;2.08;;;22.30;99.90;;;;;;5380374;26;20001;-54
2024/05/02 02:30:47;;;;;;;4.68;2.53;;;22.40;99.90;;;;;;5380672;26;20007;-54
2024/05/02 02:33:13;;;;;;;3.15;2.20;;;22.30;99.90;;;;;;5380093;26;20011;-54
2024/05/02 02:35:38;;;;;;;2.85;1.83;;;22.30;99.90;;;;;;5380326;26;20007;-55
2024/05/02 02:38:05;;;;;;;3.45;2.15;;;22.30;99.90;;;;;;5380165;26;20000;-55
2024/05/02 02:40:31;;;;;;;4.90;2.33;;;22.30;99.90;;;;;;5380016;26;20023;-51
2024/05/02 02:42:57;;;;;;;4.30;2.70;;;22.30;99.90;;;;;;5380139;26;20008;-52
2024/05/02 02:45:23;;;;;;;3.83;2.42;;;22.30;99.90;;;;;;5379903;26;19996;-52
2024/05/02 02:47:49;;;;;;;5.47;2.60;;;22.30;99.90;;;;;;5378493;26;20073;-52
2024/05/02 02:50:15;;;;;;;4.57;2.30;;;22.30;99.90;;;;;;5379816;26;19996;-52
2024/05/02 02:52:40;;;;;;;4.75;2.20;;;22.30;99.90;;;;;;5379846;26;20408;-52
2024/05/02 02:55:08;;;;;;;5.03;2.30;;;22.30;99.90;;;;;;5379712;26;20434;-53
2024/05/02 02:57:34;;;;;;;4.15;1.83;;;22.30;99.90;;;;;;5379717;26;20031;-53
2024/05/02 03:00:02;;;;;;;3.47;2.00;;;22.30;99.90;;;;;;5379997;26;20024;-53
2024/05/02 03:02:27;;;;;;;4.00;2.30;;;22.30;99.90;;;;;;5379976;26;20069;-54
2024/05/02 03:04:53;;;;;;;4.18;2.78;;;22.20;99.90;;;;;;5379706;26;20460;-54
2024/05/02 03:07:19;;;;;;;4.90;2.58;;;22.20;99.90;;;;;;5382709;26;20459;-54
2024/05/02 03:09:45;;;;;;;6.00;2.30;;;22.20;99.90;;;;;;5383134;26;20012;-54
2024/05/02 03:12:12;;;;;;;4.40;2.30;;;22.20;99.90;;;;;;5381477;26;20455;-54
2024/05/02 03:14:39;;;;;;;4.05;2.10;;;22.20;99.90;;;;;;5382985;26;19996;-53
2024/05/02 03:17:05;;;;;;;6.05;2.85;;;22.20;99.90;;;;;;5382852;26;20069;-53
2024/05/02 03:19:31;;;;;;;3.47;2.00;;;22.20;99.90;;;;;;5382985;26;20324;-52
2024/05/02 03:21:56;;;;;;;3.70;2.35;;;22.20;99.90;;;;;;5383173;26;20112;-54
2024/05/02 03:24:22;;;;;;;4.18;2.30;;;22.20;99.90;;;;;;5382799;26;20007;-53
2024/05/02 03:26:48;;;;;;;3.95;2.30;;;22.20;99.90;;;;;;5383163;26;20015;-54
2024/05/02 03:29:14;;;;;;;3.38;2.30;;;22.10;99.90;;;;;;5382862;26;20000;-53
2024/05/02 03:31:39;;;;;;;6.25;2.17;;;22.20;99.90;;;;;;5382717;26;20073;-53
2024/05/02 03:34:05;;;;;;;3.38;2.55;;;22.20;99.90;;;;;;5383056;26;20000;-53
2024/05/02 03:36:31;;;;;;;4.35;2.17;;;22.10;99.90;;;;;;5382594;26;20004;-52
2024/05/02 03:38:57;;;;;;;3.28;1.90;;;22.10;99.90;;;;;;5382818;26;20448;-53
2024/05/02 03:41:23;;;;;;;4.93;1.85;;;22.10;99.90;;;;;;5382880;26;20337;-53
2024/05/02 03:43:49;;;;;;;3.35;1.70;;;22.10;99.90;;;;;;5382868;26;20008;-54
2024/05/02 03:46:16;;;;;;;5.05;2.10;;;22.10;99.90;;;;;;5382593;26;20000;-52
2024/05/02 03:48:45;;;;;;;5.00;1.98;;;22.10;99.90;;;;;;5382631;26;20004;-53
2024/05/02 03:51:12;;;;;;;2.33;1.73;;;22.10;99.90;;;;;;5382375;26;20011;-53
2024/05/02 03:53:38;;;;;;;3.90;2.10;;;22.10;99.90;;;;;;5380069;26;20056;-53
2024/05/02 03:56:04;;;;;;;4.60;2.35;;;22.10;99.90;;;;;;5382246;26;20595;-53
2024/05/02 03:58:30;;;;;;;2.72;1.95;;;22.10;99.90;;;;;;5381730;26;19996;-54
2024/05/02 04:00:55;;;;;;;4.43;1.90;;;22.00;99.90;;;;;;5361973;26;19997;-53
2024/05/02 04:03:21;;;;;;;9.23;2.15;;;22.10;99.90;;;;;;5346852;26;20061;-55
2024/05/02 04:05:47;;;;;;;4.95;1.73;;;22.00;99.90;;;;;;5365581;26;20015;-55
2024/05/02 04:08:13;;;;;;;6.00;2.63;;;22.10;99.90;;;;;;5362465;26;20457;-54
2024/05/02 04:10:38;;;;;;;3.30;1.83;;;22.00;99.90;;;;;;5364158;26;20004;-54
2024/05/02 04:13:05;;;;;;;3.38;2.03;;;22.00;99.90;;;;;;5379542;26;19996;-53
2024/05/02 04:15:31;;;;;;;2.40;1.67;;;22.00;99.90;;;;;;5382014;26;20000;-54
2024/05/02 04:17:58;;;;;;;3.40;1.42;;;22.00;99.90;;;;;;5381747;26;20425;-54
2024/05/02 04:20:24;;;;;;;2.07;1.57;;;22.00;99.90;;;;;;5382135;26;20072;-54
2024/05/02 04:22:50;;;;;;;5.20;1.55;;;22.00;99.90;;;;;;5380346;26;19996;-54
2024/05/02 04:25:18;;;;;;;4.38;1.85;;;22.00;99.90;;;;;;5381915;26;20015;-54
2024/05/02 04:27:44;;;;;;;1.90;1.30;;;22.00;99.90;;;;;;5380135;26;20004;-54
2024/05/02 04:30:10;;;;;;;3.97;1.75;;;22.00;99.90;;;;;;5382274;26;20011;-55
2024/05/02 04:32:36;;;;;;;4.28;1.25;;;21.90;99.90;;;;;;5381734;26;20004;-54
2024/05/02 04:35:02;;;;;;;6.40;1.58;;;22.00;99.90;;;;;;5381777;26;20348;-53
2024/05/02 04:37:27;;;;;;;4.63;1.45;;;22.00;99.90;;;;;;5381864;26;20004;-53
2024/05/02 04:39:53;;;;;;;4.22;1.30;;;21.90;99.90;;;;;;5380303;26;20377;-53
2024/05/02 04:42:19;;;;;;;2.75;1.77;;;21.90;99.90;;;;;;5381766;26;20000;-54
2024/05/02 04:44:44;;;;;;;3.60;1.67;;;21.90;99.90;;;;;;5381669;26;20012;-54
2024/05/02 04:47:10;;;;;;;2.65;1.48;;;21.90;99.90;;;;;;5381754;26;20015;-54
2024/05/02 04:49:36;;;;;;;2.45;1.45;;;21.90;99.90;;;;;;5381736;26;20011;-53
2024/05/02 04:52:02;;;;;;;3.85;1.58;;;21.90;99.90;;;;;;5381552;26;20008;-53
2024/05/02 04:54:28;;;;;;;2.67;1.63;;;21.90;99.90;;;;;;5381423;26;20010;-53
2024/05/02 04:56:53;;;;;;;3.47;1.70;;;21.90;99.90;;;;;;5381587;26;20019;-54
2024/05/02 04:59:19;;;;;;;1.80;1.40;;;21.90;99.90;;;;;;5381519;26;19996;-54
2024/05/02 05:01:45;;;;;;;3.67;1.50;;;21.90;99.90;;;;;;5381562;26;20000;-55
2024/05/02 05:04:11;;;;;;;2.28;1.40;;;21.90;99.90;;;;;;5381461;26;20011;-55
2024/05/02 05:06:36;;;;;;;2.33;1.42;;;21.90;99.90;;;;;;5381508;26;20004;-55
2024/05/02 05:09:04;;;;;;;2.35;1.40;;;21.90;99.90;;;;;;5381661;26;20004;-54
2024/05/02 05:11:31;;;;;;;2.85;1.60;;;21.90;99.90;;;;;;5381509;26;20039;-55
2024/05/02 05:13:56;;;;;;;3.55;1.98;;;21.80;99.90;;;;;;5381627;26;20004;-53
2024/05/02 05:16:22;;;;;;;3.50;1.42;;;21.90;99.90;;;;;;5381251;26;19996;-53
2024/05/02 05:18:48;;;;;;;5.28;1.60;;;21.90;99.90;;;;;;5381550;26;20012;-52
2024/05/02 05:21:14;;;;;;;3.97;1.70;;;21.80;99.90;;;;;;5381186;26;20318;-54
2024/05/02 05:23:40;;;;;;;3.13;1.50;;;21.80;99.90;;;;;;5381385;26;20008;-53
2024/05/02 05:26:05;;;;;;;3.28;1.45;;;21.80;99.90;;;;;;5381164;26;19996;-53
2024/05/02 05:28:31;;;;;;;2.88;1.77;;;21.80;99.90;;;;;;5379865;26;20001;-53
2024/05/02 05:30:57;;;;;;;3.53;1.67;;;21.80;99.90;;;;;;5381261;26;20011;-54
2024/05/02 05:33:23;;;;;;;2.95;1.67;;;21.80;99.90;;;;;;5381127;26;20008;-53
2024/05/02 05:35:49;;;;;;;3.40;1.80;;;21.80;99.90;;;;;;5381209;26;19996;-53
2024/05/02 05:38:14;;;;;;;4.05;1.65;;;21.80;99.90;;;;;;5379263;26;20024;-53
2024/05/02 05:40:40;;;;;;;3.33;1.40;;;21.80;99.90;;;;;;5380890;26;20000;-53
2024/05/02 05:43:10;;;;;;;5.07;1.92;;;21.80;99.90;;;;;;5368940;26;19997;-53
2024/05/02 05:45:36;;;;;;;3.70;1.95;;;21.80;99.90;;;;;;5363153;26;20015;-53
2024/05/02 05:48:01;;;;;;;4.35;1.80;;;21.80;99.90;;;;;;5380535;26;20004;-52
2024/05/02 05:50:27;;;;;;;3.25;1.38;;;21.80;99.90;;;;;;5380772;26;20015;-53
2024/05/02 05:52:53;;;;;;;4.53;1.73;;;21.80;99.90;;;;;;5380449;26;20000;-53
2024/05/02 05:55:19;;;;;;;3.75;1.67;;;21.80;99.90;;;;;;5358876;26;20015;-53
2024/05/02 05:57:45;;;;;;;2.75;1.60;;;21.80;99.90;;;;;;5344177;26;19997;-53
2024/05/02 06:00:11;;;;;;;4.80;1.50;;;21.80;99.90;;;;;;5343807;26;20074;-54
2024/05/02 06:02:39;;;;;;;2.20;1.30;;;21.80;99.90;;;;;;5345790;26;19993;-54
2024/05/02 06:05:04;;;;;;;;;;;21.80;99.90;;;;;;5346526;26;20328;-54
2024/05/02 06:07:30;;;;;;;4.10;1.70;;;21.80;99.90;;;;;;5345824;26;19927;-53
2024/05/02 06:09:56;;;;;;;3.47;1.27;;;21.80;99.90;;;;;;5345849;26;20361;-54
2024/05/02 06:12:22;;;;;;;2.88;1.30;;;21.80;99.90;;;;;;5345267;26;20007;-53
2024/05/02 06:14:47;;;;;;;2.67;1.58;;;21.70;99.90;;;;;;5345287;26;20462;-53
2024/05/02 06:17:13;;;;;;;6.00;1.63;;;21.70;99.90;;;;;;5345352;26;20328;-54
2024/05/02 06:19:39;;;;;;;4.88;2.03;;;21.70;99.90;;;;;;5345398;26;20007;-54
2024/05/02 06:22:05;;;;;;;3.83;1.85;;;21.70;99.90;;;;;;5345481;26;20004;-54
2024/05/02 06:24:30;;;;;;;2.63;1.60;;;21.70;99.90;;;;;;5345520;26;20322;-52
2024/05/02 06:26:56;;;;;;;5.07;1.90;;;21.70;99.90;;;;;;5345303;26;20009;-53
2024/05/02 06:29:22;;;;;;;3.55;2.05;;;21.70;99.90;;;;;;5344878;26;20004;-53
2024/05/02 06:31:48;;;;;;;3.78;1.60;;;21.70;99.90;;;;;;5345051;26;19996;-53
2024/05/02 06:34:14;;;;;;;3.17;1.58;;;21.70;99.90;;;;;;5345079;26;20471;-53
2024/05/02 06:36:40;;;;;;;5.25;2.15;;;21.70;99.90;;;;;;5344793;26;20066;-54
2024/05/02 06:39:06;;;;;;;5.30;1.98;;;21.70;99.90;;;;;;5345009;26;20093;-53
2024/05/02 06:41:33;;;;;;;2.88;1.92;;;21.70;99.90;;;;;;5348172;26;20003;-54
2024/05/02 06:43:58;;;;;;;6.80;2.20;;;21.70;99.90;;;;;;5348562;26;19993;-53
2024/05/02 06:46:24;;;;;;;4.85;2.40;;;21.70;99.90;;;;;;5346645;26;20007;-54
2024/05/02 06:48:50;;;;;;;4.88;2.05;;;21.70;99.90;;;;;;5348159;26;20007;-53
2024/05/02 06:51:16;;;;;;;3.67;2.03;;;21.70;99.90;;;;;;5348201;26;20005;-53
2024/05/02 06:53:41;;;;;;;5.95;1.90;;;21.70;99.90;;;;;;5348227;26;19993;-53
2024/05/02 06:56:07;;;;;;;4.32;1.70;;;21.70;99.90;;;;;;5348101;26;20029;-53
2024/05/02 06:58:33;;;;;;;5.05;2.20;;;21.70;99.90;;;;;;5348112;26;20005;-53
2024/05/02 07:00:59;;;;;;;3.92;2.00;;;21.70;99.90;;;;;;5348256;26;19997;-54
2024/05/02 07:03:25;;;;;;;3.13;1.77;;;21.70;99.90;;;;;;5376032;26;20436;-53
2024/05/02 07:05:50;;;;;;;4.90;2.45;;;21.70;99.90;;;;;;5347945;26;20032;-54
2024/05/02 07:08:16;;;;;;;4.30;1.90;;;21.70;99.90;;;;;;5348010;26;20004;-55
2024/05/02 07:10:42;;;;;;;4.28;2.00;;;21.70;99.90;;;;;;5347980;26;20003;-54
2024/05/02 07:13:08;;;;;;;3.33;1.80;;;21.70;99.90;;;;;;5348086;26;20007;-55
2024/05/02 07:15:33;;;;;;;5.35;2.22;;;21.70;99.90;;;;;;5348374;26;20009;-54
2024/05/02 07:18:08;;;;;;;5.22;1.90;;;21.80;99.90;;;;;;5348273;26;20063;-53
2024/05/02 07:20:34;;;;;;;3.90;1.80;;;21.70;99.90;;;;;;5348326;26;20008;-54
2024/05/02 07:23:05;;;;;;;4.10;1.95;;;21.80;99.90;;;;;;5346708;26;19997;-55
2024/05/02 07:25:31;;;;;;;3.88;1.90;;;21.80;99.90;;;;;;5348459;26;20416;-55
2024/05/02 07:27:56;;;;;;;4.55;2.33;;;21.80;99.90;;;;;;5348184;26;20008;-55
2024/05/02 07:30:22;;;;;;;7.00;1.88;;;21.70;99.90;;;;;;5346318;26;20441;-55
2024/05/02 07:32:48;;;;;;;3.38;2.10;;;21.80;99.90;;;;;;5346260;26;20071;-54
2024/05/02 07:35:14;;;;;;;3.08;1.50;;;21.80;99.90;;;;;;5347931;26;19997;-53
2024/05/02 07:37:39;;;;;;;3.95;1.60;;;21.80;99.90;;;;;;5347747;26;20004;-53
2024/05/02 07:40:06;;;;;;;3.58;1.80;;;21.80;99.90;;;;;;5347896;26;20029;-54
2024/05/02 07:42:32;;;;;;;3.00;1.45;;;21.80;99.90;;;;;;5347616;26;20391;-53
2024/05/02 07:44:58;;;;;;;4.10;1.42;;;21.80;99.90;;;;;;5347767;26;19997;-53
2024/05/02 07:47:24;;;;;;;2.83;1.52;;;21.80;99.90;;;;;;5347906;26;19997;-54
2024/05/02 07:49:50;;;;;;;3.00;1.60;;;21.80;99.90;;;;;;5347859;26;20325;-54
2024/05/02 07:52:16;;;;;;;5.95;2.25;;;21.80;99.90;;;;;;5346796;26;20486;-53
2024/05/02 07:54:42;;;;;;;4.18;1.70;;;21.80;99.90;;;;;;5347506;26;19997;-52
2024/05/02 07:57:07;;;;;;;3.35;1.50;;;21.80;99.90;;;;;;5347556;26;20039;-53
2024/05/02 07:59:33;;;;;;;2.72;1.38;;;21.80;99.90;;;;;;5346103;26;19997;-54
2024/05/02 08:01:59;;;;;;;2.53;1.73;;;21.80;99.90;;;;;;5347253;26;20074;-53
2024/05/02 08:04:24;;;;;;;4.45;2.10;;;21.80;99.90;;;;;;5347419;26;19997;-52
2024/05/02 08:06:50;;;;;;;3.50;2.17;;;21.80;99.90;;;;;;5347364;26;20076;-53
2024/05/02 08:09:16;;;;;;;2.20;1.30;;;21.80;99.90;;;;;;5347738;26;20437;-53
2024/05/02 08:11:42;;;;;;;3.50;1.35;;;21.80;99.90;;;;;;5347273;26;19997;-53
2024/05/02 08:14:07;;;;;;;2.35;1.30;;;21.80;99.90;;;;;;5347399;26;20074;-53
2024/05/02 08:16:36;;;;;;;1.95;1.33;;;21.80;99.90;;;;;;5347512;26;20001;-53
2024/05/02 08:19:02;;;;;;;3.25;1.95;;;21.80;99.90;;;;;;5347228;26;20011;-53
2024/05/02 08:21:28;;;;;;;3.97;1.65;;;21.80;99.90;;;;;;5347242;26;20337;-53
2024/05/02 08:23:54;;;;;;;2.67;1.33;;;21.80;99.90;;;;;;5347368;26;19996;-54
2024/05/02 08:26:19;;;;;;;2.13;1.30;;;21.80;99.90;;;;;;5347250;26;20456;-54
2024/05/02 08:28:47;;;;;;;4.65;1.30;;;21.80;99.90;;;;;;5347092;26;20456;-53
2024/05/02 08:31:13;;;;;;;3.42;1.83;;;21.80;99.90;;;;;;5347238;26;19997;-56
2024/05/02 08:33:39;;;;;;;3.38;1.75;;;21.80;99.90;;;;;;5346872;26;20008;-53
2024/05/02 08:36:05;;;;;;;4.30;1.48;;;21.80;99.90;;;;;;5347154;26;20381;-52
2024/05/02 08:38:30;;;;;;;3.58;1.73;;;21.80;99.90;;;;;;5346816;26;20452;-53
2024/05/02 08:40:56;;;;;;;2.97;1.40;;;21.80;99.90;;;;;;5347012;26;20001;-53
2024/05/02 08:43:24;;;;;;;2.55;1.50;;;21.80;99.90;;;;;;5347252;26;20003;-53
2024/05/02 08:45:52;;;;;;;3.22;1.73;;;21.80;99.90;;;;;;5345051;26;20437;-52
2024/05/02 08:48:22;;;;;;;2.80;1.30;;;21.80;99.90;;;;;;5346590;26;20011;-52
2024/05/02 08:50:50;;;;;;;4.03;1.45;;;21.80;99.90;;;;;;5346755;26;20024;-52
2024/05/02 08:53:17;;;;;;;2.30;1.50;;;21.80;99.90;;;;;;5346652;26;20070;-54
2024/05/02 08:55:43;;;;;;;3.63;1.60;;;21.80;99.90;;;;;;5346858;26;20037;-53
2024/05/02 08:58:09;;;;;;;2.50;1.30;;;21.80;99.90;;;;;;5344996;26;19997;-53
2024/05/02 09:00:35;;;;;;;2.50;1.27;;;21.80;99.90;;;;;;5346476;26;19997;-53
2024/05/02 09:03:02;;;;;;;2.83;1.70;;;21.80;99.90;;;;;;5345337;26;20503;-54
2024/05/02 09:05:29;;;;;;;3.67;1.40;;;21.80;99.90;;;;;;5350944;26;20029;-54
2024/05/02 09:07:54;;;;;;;3.13;1.53;;;21.80;99.90;;;;;;5358169;26;20051;-54
2024/05/02 09:10:20;;;;;;;2.50;1.70;;;21.80;99.90;;;;;;5381012;26;20074;-54
2024/05/02 09:12:47;;;;;;;4.90;1.33;;;21.80;99.90;;;;;;5380778;26;20365;-53
2024/05/02 09:15:13;;;;;;;2.20;1.20;;;21.80;99.90;;;;;;5381136;26;19996;-53
2024/05/02 09:17:39;;;;;;;3.53;1.63;;;21.80;99.90;;;;;;5381212;26;20019;-53
2024/05/02 09:20:07;;;;;;;3.35;1.77;;;21.80;99.90;;;;;;5381092;26;20019;-54
2024/05/02 09:22:33;;;;;;;2.15;1.60;;;21.80;99.90;;;;;;5357747;26;20073;-53
2024/05/02 09:24:59;;;;;;;2.10;1.40;;;21.80;99.90;;;;;;5380269;26;19996;-54
2024/05/02 09:27:38;;;;;;;2.08;1.40;;;21.80;99.90;;;;;;5380236;26;19996;-53
2024/05/02 09:30:04;;;;;;;3.75;1.50;;;21.80;99.90;;;;;;5381323;26;20443;-53
2024/05/02 09:32:30;;;;;;;3.40;1.35;;;21.80;99.90;;;;;;5381137;26;20028;-53
2024/05/02 09:34:56;;;;;;;2.42;1.20;;;21.80;99.90;;;;;;5380984;26;20008;-54
2024/05/02 09:37:31;;;;;;;2.95;1.73;;;21.80;99.90;;;;;;5380938;26;20008;-54
2024/05/02 09:40:02;;;;;;;2.67;1.30;;;21.80;99.90;;;;;;5367389;26;20016;-54
2024/05/02 09:42:31;;;;;;;2.35;1.27;;;21.80;99.90;;;;;;5364279;26;20015;-54
2024/05/02 09:45:00;;;;;;;3.17;1.50;;;21.80;99.90;;;;;;5359435;26;20011;-54
2024/05/02 09:47:56;;;;;;;2.30;1.50;;;21.90;99.90;;;;;;5345562;26;20001;-54
2024/05/02 09:50:27;;;;;;;4.40;1.85;;;21.80;99.90;;;;;;5345983;26;20004;-55
2024/05/02 09:52:54;;;;;;;6.30;1.42;;;21.90;99.90;;;;;;5350767;26;20004;-55
2024/05/02 09:55:23;;;;;;;2.00;1.38;;;21.90;99.90;;;;;;5365021;26;20069;-55
2024/05/02 09:57:52;;;;;;;2.65;1.50;;;21.90;99.90;;;;;;5357690;26;20012;-52
2024/05/02 10:00:18;;;;;;;4.00;1.40;;;21.80;99.90;;;;;;5345456;26;20356;-55
2024/05/02 10:02:47;;;;;;;4.88;1.52;;;21.90;99.90;;;;;;5350306;26;20073;-54
2024/05/02 10:05:14;;;;;;;4.15;2.08;;;21.90;99.90;;;;;;5365955;26;20004;-54
2024/05/02 10:07:40;;;;;;;2.08;1.25;;;21.90;99.90;;;;;;5372755;26;20078;-53
2024/05/02 10:10:12;;;;;;;2.10;1.35;;;21.90;99.90;;;;;;5345645;26;20334;-53
2024/05/02 10:12:50;;;;;;;4.47;1.15;;;21.90;99.90;;;;;;5345372;26;20480;-54
2024/05/02 10:15:22;;;;;;;2.55;1.38;;;21.90;99.90;;;;;;5352322;26;20333;-54
2024/05/02 10:17:48;;;;;;;6.88;1.77;;;21.90;99.90;;;;;;5345087;26;20460;-54
2024/05/02 10:20:18;;;;;;;4.28;1.90;;;21.90;99.90;;;;;;5341962;26;20015;-54
2024/05/02 10:22:44;;;;;;;3.50;1.83;;;21.90;99.90;;;;;;5344721;26;20001;-54
2024/05/02 10:25:13;;;;;;;7.10;1.50;;;21.90;99.90;;;;;;5343663;26;20456;-54
2024/05/02 10:27:40;;;;;;;5.63;2.13;;;21.90;99.90;;;;;;5345379;26;20001;-53
2024/05/02 10:30:07;;;;;;;3.10;2.08;;;21.90;99.90;;;;;;5343559;26;19997;-52
2024/05/02 10:32:40;;;;;;;7.18;2.10;;;22.00;99.90;;;;;;5345069;26;20020;-53
2024/05/02 10:35:06;;;;;;;3.45;1.65;;;22.00;99.90;;;;;;5345004;26;19997;-53
2024/05/02 10:37:32;;;;;;;7.85;2.40;;;22.00;99.90;;;;;;5345051;26;20008;-53
2024/05/02 10:39:58;;;;;;;3.40;1.63;;;22.00;99.90;;;;;;5344831;26;20077;-52
2024/05/02 10:42:25;;;;;;;4.13;2.00;;;22.00;99.90;;;;;;5344973;26;20437;-52
2024/05/02 10:44:52;;;;;;;3.17;1.90;;;22.00;99.90;;;;;;5344967;26;20441;-52
2024/05/02 10:47:18;;;;;;;4.43;1.55;;;22.00;99.90;;;;;;5344803;26;20429;-53
2024/05/02 10:49:46;;;;;;;5.20;2.00;;;22.00;99.90;;;;;;5345142;26;20001;-53
2024/05/02 10:52:11;;;;;;;;;;;22.00;99.90;;;;;;5345638;26;20008;-53
2024/05/02 10:54:37;;;;;;;3.58;1.88;;;22.00;99.90;;;;;;5344712;26;19926;-53
2024/05/02 10:57:03;;;;;;;4.20;1.90;;;22.10;99.90;;;;;;5344658;26;20445;-52
2024/05/02 10:59:30;;;;;;;4.40;2.13;;;22.10;99.90;;;;;;5344706;26;19997;-52
2024/05/02 11:01:56;;;;;;;5.00;2.10;;;22.10;99.90;;;;;;5344837;26;20008;-53
2024/05/02 11:04:21;;;;;;;8.02;2.38;;;22.10;99.90;;;;;;5342886;26;20033;-53
2024/05/02 11:06:47;;;;;;;3.92;1.88;;;22.10;99.90;;;;;;5344744;26;19993;-53
2024/05/02 11:09:15;;;;;;;7.85;2.55;;;22.10;99.90;;;;;;5344710;26;20354;-53
2024/05/02 11:11:44;;;;;;;7.60;2.60;;;22.10;99.90;;;;;;5344558;26;20003;-53
2024/05/02 11:14:11;;;;;;;5.25;2.08;;;22.10;99.90;;;;;;5340923;26;20008;-50
2024/05/02 11:16:37;;;;;;;6.30;2.50;;;22.10;99.90;;;;;;5338425;26;20473;-51
2024/05/02 11:19:03;;;;;;;8.25;2.70;;;22.20;99.90;;;;;;5342126;26;20040;-52
2024/05/02 11:21:32;;;;;;;6.07;2.30;;;22.20;99.90;;;;;;5343723;26;20111;-55
2024/05/02 11:24:02;;;;;;;7.80;2.83;;;22.20;99.90;;;;;;5343469;26;20002;-53
2024/05/02 11:26:30;;;;;;;4.57;2.30;;;22.20;99.90;;;;;;5343910;26;20111;-54
2024/05/02 11:28:55;;;;;;;;;;;22.20;99.90;;;;;;5346671;26;20016;-53
2024/05/02 11:31:21;;;;;;;4.95;2.35;;;22.20;99.90;;;;;;5344612;26;20284;-53
2024/05/02 11:33:51;;;;;;;4.55;2.50;;;22.20;99.90;;;;;;5343202;26;20404;-54
2024/05/02 11:36:17;;;;;;;5.13;2.38;;;22.30;99.90;;;;;;5359915;26;20318;-54
2024/05/02 11:38:43;;;;;;;4.63;2.20;;;22.20;99.90;;;;;;5371688;26;20069;-54
2024/05/02 11:41:09;;;;;;;5.63;2.50;;;22.30;99.90;;;;;;5382017;26;19996;-53
2024/05/02 11:43:35;;;;;;;6.00;3.15;;;22.30;99.90;;;;;;5382207;26;20015;-54
2024/05/02 11:46:02;;;;;;;6.05;2.30;;;22.30;99.90;;;;;;5381660;26;20007;-54
2024/05/02 11:48:28;;;;;;;7.30;2.10;;;22.30;99.90;;;;;;5382055;26;20458;-54
2024/05/02 11:50:54;;;;;;;6.25;2.33;;;22.30;99.90;;;;;;5381707;26;20080;-54
2024/05/02 11:53:25;;;;;;;3.75;2.05;;;22.30;99.90;;;;;;5381647;26;20440;-54
2024/05/02 11:55:51;;;;;;;5.10;2.20;;;22.30;99.90;;;;;;5379993;26;20019;-55
2024/05/02 11:58:17;;;;;;;7.30;2.55;;;22.30;99.90;;;;;;5380486;26;20472;-55
2024/05/02 12:00:43;;;;;;;8.35;2.40;;;22.30;99.90;;;;;;5381648;26;20000;-53
2024/05/02 12:03:10;;;;;;;4.32;2.10;;;22.40;99.90;;;;;;5381937;26;20000;-54
2024/05/02 12:05:39;;;;;;;5.80;2.25;;;22.40;99.90;;;;;;5381440;26;20004;-55
2024/05/02 12:08:06;;;;;;;4.55;2.55;;;22.40;99.90;;;;;;5380700;26;20018;-54
2024/05/02 12:10:32;;;;;;;8.50;2.17;;;22.40;99.90;;;;;;5379233;26;20008;-53
2024/05/02 12:12:58;;;;;;;4.38;2.13;;;22.40;99.90;;;;;;5362141;26;20015;-56
2024/05/02 12:15:25;;;;;;;7.05;2.28;;;22.40;99.90;;;;;;5375345;26;20004;-55
2024/05/02 12:17:51;;;;;;;6.13;2.45;;;22.40;99.90;;;;;;5381567;26;20011;-54
2024/05/02 12:20:16;;;;;;;7.15;2.85;;;22.50;99.90;;;;;;5381509;26;20005;-54
2024/05/02 12:22:43;;;;;;;7.80;2.42;;;22.50;99.90;;;;;;5378080;26;20016;-54
2024/05/02 12:25:08;;;;;;;6.13;2.38;;;22.50;99.90;;;;;;5357270;26;20017;-54
2024/05/02 12:27:34;;;;;;;10.23;3.42;;;22.50;99.90;;;;;;5380693;26;20058;-53
2024/05/02 12:30:00;;;;;;;10.05;2.90;;;22.50;99.90;;;;;;5380995;26;20015;-53
2024/05/02 12:32:26;;;;;;;14.35;3.40;;;22.50;99.90;;;;;;5380785;26;20011;-54
2024/05/02 12:34:51;;;;;;;6.80;3.20;;;22.50;99.90;;;;;;5380484;26;20004;-54
2024/05/02 12:37:18;;;;;;;8.27;3.05;;;22.50;99.90;;;;;;5369777;26;20001;-56
2024/05/02 12:39:44;;;;;;;7.82;3.22;;;22.50;99.90;;;;;;5380900;26;20004;-55
2024/05/02 12:42:11;;;;;;;11.30;3.50;;;22.50;99.90;;;;;;5380477;26;20018;-54
2024/05/02 12:44:37;;;;;;;6.10;2.55;;;22.60;99.90;;;;;;5381378;26;20316;-54